Last 24 Hours

Canyon Lodge - 8,343ft

5 Minute Data | America/Los_Angeles
as of 9/5/26 2:47 AM PDT
Date & Time Temp (°F) RH (%) Dew Pt (°F) Wet Bulb (°F) Wind Dir (°) Wind Spd (mph) Wind Gust (mph) Wind Gst Dir (°)
9/5/26 - 0245 47.7 44 26.7 39.2 SW | 231 5.2 10.8 WSW | 244
9/5/26 - 0240 47.7 44 26.7 39.1 SW | 214 4.9 10.3 SSW | 203
9/5/26 - 0235 48.3 44 27.4 39.7 WSW | 242 6.4 13.8 WSW | 240
9/5/26 - 0230 47.6 43 26.5 39.0 SW | 229 4.8 12.7 WSW | 249
9/5/26 - 0225 47.4 44 26.4 38.8 SW | 218 4.4 13.7 WSW | 251
9/5/26 - 0220 47.6 44 26.6 39.0 SW | 233 5.6 12.2 WSW | 246
9/5/26 - 0215 47.0 44 26.0 38.5 WSW | 245 6.6 15.2 W | 261
9/5/26 - 0210 46.9 43 25.8 38.4 SW | 224 4.6 15.7 W | 270
9/5/26 - 0205 47.0 43 25.8 38.5 SW | 229 5.1 12.2 S | 184
9/5/26 - 0200 47.0 43 25.7 38.5 WSW | 239 5.3 13.5 W | 263
9/5/26 - 0155 46.6 43 25.2 38.0 WSW | 242 4.2 9.8 SSW | 210
9/5/26 - 0150 46.3 43 24.9 37.8 SW | 220 3.8 11.3 SSW | 196
9/5/26 - 0145 46.6 43 25.3 38.1 WSW | 250 5.9 13.5 W | 281
9/5/26 - 0140 46.4 43 25.1 38.0 SW | 224 5.2 12.2 WSW | 254
9/5/26 - 0135 46.0 42 24.4 37.5 SW | 227 4.9 10.4 SSW | 198
9/5/26 - 0130 46.3 43 24.8 37.8 WSW | 245 5.1 13.8 SW | 227
9/5/26 - 0125 45.6 43 24.2 37.2 WSW | 240 5.7 12.8 SW | 220
9/5/26 - 0120 45.4 42 23.8 37.0 SW | 234 4.0 12.6 S | 187
9/5/26 - 0115 44.9 42 23.3 36.6 SW | 214 3.6 12.2 SW | 223
9/5/26 - 0110 45.0 42 23.5 36.8 SW | 232 5.8 15.1 S | 182
9/5/26 - 0105 45.0 42 23.5 36.7 SW | 227 4.7 10.0 SSW | 207
9/5/26 - 0100 45.0 42 23.3 36.7 SW | 231 3.4 14.9 WSW | 250
9/5/26 - 0055 45.3 42 23.3 36.8 SW | 225 3.7 12.0 SW | 236
9/5/26 - 0050 45.0 42 23.1 36.6 SSW | 193 3.7 12.8 S | 169
9/5/26 - 0045 44.9 41 22.8 36.5 SSW | 210 5.3 16.7 W | 261
9/5/26 - 0040 45.0 41 23.0 36.6 SSW | 206 6.2 15.0 WSW | 243
9/5/26 - 0035 45.0 41 22.7 36.5 SW | 214 4.9 13.2 SW | 232
9/5/26 - 0030 45.1 41 22.9 36.6 S | 189 7.1 17.8 S | 170
9/5/26 - 0025 45.3 41 23.1 36.8 SSW | 203 6.4 17.4 S | 178
9/5/26 - 0020 45.3 42 23.4 36.8 SSW | 199 5.3 10.1 SW | 229
9/5/26 - 0015 45.1 42 23.5 36.8 SSW | 198 6.6 13.8 SSW | 202
9/5/26 - 0010 45.3 42 23.5 36.9 SW | 215 5.8 16.6 S | 181
9/5/26 - 0005 45.3 42 23.4 36.9 SW | 225 4.9 15.5 WSW | 244
9/5/26 - 0000 45.4 42 23.4 36.9 SW | 220 6.0 15.3 S | 182
9/4/26 - 2355 45.3 41 23.2 36.8 SSW | 200 6.2 15.2 SSE | 164
9/4/26 - 2350 45.3 41 23.0 36.7 SSW | 210 3.6 13.1 W | 266
9/4/26 - 2345 45.5 41 23.1 36.9 SSW | 212 5.9 13.7 SSW | 195
9/4/26 - 2340 45.4 41 23.1 36.8 SSW | 199 6.2 13.2 S | 186
9/4/26 - 2335 45.6 41 23.2 37.0 SSW | 202 5.1 13.2 SSW | 193
9/4/26 - 2330 45.4 41 23.2 36.8 SSW | 212 4.2 12.0 SSW | 192
9/4/26 - 2325 45.4 41 23.2 36.8 SW | 215 4.8 15.9 SW | 231
9/4/26 - 2320 45.3 41 22.8 36.7 SSW | 211 4.4 14.7 SSW | 193
9/4/26 - 2315 45.4 41 22.8 36.8 SSW | 194 6.0 16.1 S | 184
9/4/26 - 2310 45.3 41 22.9 36.7 SSW | 208 4.2 11.4 SSE | 158
9/4/26 - 2305 45.4 41 22.9 36.8 SSW | 210 6.6 15.5 SSW | 203
9/4/26 - 2300 45.6 41 23.3 37.0 SW | 226 6.5 15.3 SSW | 207
9/4/26 - 2255 45.7 41 23.1 37.0 SW | 216 7.0 18.0 SSW | 210
9/4/26 - 2250 45.8 41 23.4 37.2 SSW | 209 8.5 28.4 S | 174
9/4/26 - 2245 46.0 40 23.2 37.2 SSW | 200 6.1 20.3 S | 179
9/4/26 - 2240 46.0 40 23.2 37.2 SSW | 192 7.4 17.4 S | 169
9/4/26 - 2235 46.1 41 23.5 37.3 S | 190 4.9 11.6 SW | 231
9/4/26 - 2230 46.2 41 23.6 37.4 SSW | 192 8.4 18.3 SSW | 209
9/4/26 - 2225 46.2 40 23.5 37.4 SSW | 201 4.2 16.9 SW | 227
9/4/26 - 2220 46.1 41 23.5 37.3 SSW | 198 5.5 13.0 SSW | 209
9/4/26 - 2215 46.6 41 23.9 37.7 SSW | 194 5.6 14.5 S | 170
9/4/26 - 2210 46.6 40 23.6 37.6 S | 178 6.9 27.9 S | 185
9/4/26 - 2205 46.2 40 23.3 37.3 S | 185 5.8 15.2 SSE | 154
9/4/26 - 2200 46.1 40 23.1 37.2 SW | 214 5.5 16.2 S | 175
9/4/26 - 2155 45.6 40 22.7 36.8 SSW | 205 5.6 15.0 SSW | 208
9/4/26 - 2150 45.6 40 22.7 36.8 SSW | 199 6.0 15.7 SSW | 198
9/4/26 - 2145 45.7 40 22.6 36.9 SSW | 208 5.1 13.4 S | 173
9/4/26 - 2140 45.8 39 22.5 36.9 SSW | 210 7.0 15.4 SW | 216
9/4/26 - 2135 46.2 39 22.9 37.2 SW | 216 5.7 13.9 SSW | 202
9/4/26 - 2130 46.3 40 23.0 37.3 SSW | 198 5.7 16.9 SSE | 165
9/4/26 - 2125 46.3 39 23.0 37.3 SSW | 198 8.9 25.4 SSE | 168
9/4/26 - 2120 46.3 40 23.2 37.4 SSW | 194 5.1 20.8 S | 173
9/4/26 - 2115 46.3 41 23.6 37.5 SW | 214 6.8 15.3 S | 182
9/4/26 - 2110 46.3 40 23.5 37.4 SSW | 209 6.3 16.8 S | 177
9/4/26 - 2105 46.3 40 23.2 37.4 SW | 216 5.4 14.0 SW | 231
9/4/26 - 2100 46.4 40 23.2 37.4 SSW | 207 7.0 15.3 WSW | 249
9/4/26 - 2055 45.8 39 22.5 36.9 SW | 223 6.9 15.4 WSW | 253
9/4/26 - 2050 46.3 39 22.8 37.2 SW | 219 7.8 14.5 WSW | 238
9/4/26 - 2045 46.3 39 22.8 37.3 SSW | 209 6.7 13.4 S | 183
9/4/26 - 2040 46.4 39 23.1 37.4 SW | 217 5.4 13.8 W | 268
9/4/26 - 2035 46.4 39 23.1 37.4 SSW | 213 8.0 21.2 SSW | 205
9/4/26 - 2030 46.7 40 23.5 37.6 SW | 217 5.3 16.9 WSW | 238
9/4/26 - 2025 46.7 40 23.6 37.7 SSW | 207 5.3 13.6 S | 185
9/4/26 - 2020 46.7 40 23.7 37.7 SSW | 211 5.9 17.6 WSW | 243
9/4/26 - 2015 46.9 40 23.8 37.8 SSW | 213 5.0 14.9 SSW | 202
9/4/26 - 2010 46.9 40 23.9 37.9 SW | 227 6.1 15.1 W | 276
9/4/26 - 2005 46.9 41 24.2 38.0 SSW | 206 6.9 15.2 S | 186
9/4/26 - 2000 47.0 41 24.6 38.1 SW | 214 5.9 11.8 WNW | 296
9/4/26 - 1955 47.1 41 24.9 38.3 SSW | 197 6.1 12.0 S | 191
9/4/26 - 1950 47.1 41 24.7 38.2 SSW | 211 5.7 16.1 SSW | 194
9/4/26 - 1945 47.1 42 25.0 38.3 SSW | 200 4.8 10.6 S | 171
9/4/26 - 1940 47.0 42 25.0 38.2 SW | 216 6.2 20.2 S | 178
9/4/26 - 1935 47.1 42 25.1 38.3 SSW | 206 6.5 15.3 S | 178
9/4/26 - 1930 47.3 41 24.9 38.3 SSW | 206 8.2 19.6 SSE | 159
9/4/26 - 1925 47.5 42 25.4 38.6 SSW | 209 6.5 15.2 SSW | 206
9/4/26 - 1920 47.6 41 25.0 38.5 SSW | 199 6.5 18.2 SW | 217
9/4/26 - 1915 47.6 41 25.4 38.7 SW | 223 6.7 23.1 SSW | 206
9/4/26 - 1910 47.6 42 25.5 38.7 SSW | 209 8.3 16.9 WSW | 255
9/4/26 - 1905 47.7 41 25.0 38.6 SSW | 207 7.9 19.5 S | 171
9/4/26 - 1900 48.0 41 25.1 38.8 SSW | 197 3.6 8.7 S | 178
9/4/26 - 1855 48.1 40 24.8 38.8 SSW | 204 6.1 18.5 SSE | 161
9/4/26 - 1850 48.2 40 25.2 38.9 SW | 228 5.9 13.7 S | 185
9/4/26 - 1845 48.2 41 25.7 39.1 SW | 222 6.1 14.5 W | 261
9/4/26 - 1840 48.4 41 25.9 39.3 SSW | 212 5.4 21.0 SSW | 203
9/4/26 - 1835 48.6 41 26.1 39.4 SW | 214 3.7 13.9 W | 267
9/4/26 - 1830 48.4 41 25.9 39.2 SSW | 207 6.7 14.8 SSW | 203
9/4/26 - 1825 48.8 41 26.1 39.5 SSW | 200 4.3 16.0 SSE | 161
9/4/26 - 1820 48.9 40 25.9 39.5 S | 181 5.9 14.1 SSE | 167
9/4/26 - 1815 48.9 41 26.3 39.6 SSW | 200 5.2 15.4 SSW | 194
9/4/26 - 1810 49.0 41 26.6 39.8 S | 191 6.2 14.0 SSW | 196
9/4/26 - 1805 49.1 42 26.9 39.9 SSW | 203 8.6 19.0 SSE | 161
9/4/26 - 1800 49.4 41 26.8 40.0 SSW | 211 7.6 19.3 S | 169
9/4/26 - 1755 49.4 41 26.7 40.0 SSW | 209 5.2 13.1 SW | 221
9/4/26 - 1750 49.6 41 26.8 40.1 SW | 222 4.3 14.7 SW | 214
9/4/26 - 1745 49.7 41 26.9 40.2 SSW | 207 4.7 18.4 SSW | 195
9/4/26 - 1740 49.8 41 27.0 40.3 SW | 217 7.7 16.7 SW | 230
9/4/26 - 1735 49.8 41 27.1 40.4 SSW | 211 7.1 17.9 S | 176
9/4/26 - 1730 49.8 42 27.7 40.5 SW | 214 7.6 18.6 S | 181
9/4/26 - 1725 50.3 42 28.2 40.9 SSW | 209 5.4 13.0 SSW | 198
9/4/26 - 1720 50.5 42 28.4 41.1 SSW | 199 6.0 19.2 S | 187
9/4/26 - 1715 50.4 42 28.4 41.1 SSW | 213 6.5 15.9 S | 183
9/4/26 - 1710 50.6 42 28.5 41.1 SW | 232 7.0 15.1 WSW | 242
9/4/26 - 1705 51.5 43 29.5 41.9 SSW | 200 5.8 18.4 SSW | 207
9/4/26 - 1700 51.6 43 29.7 42.1 SSW | 197 7.0 16.6 S | 182
9/4/26 - 1655 52.2 42 29.9 42.4 SSW | 202 5.6 14.3 S | 182
9/4/26 - 1650 52.1 42 29.9 42.3 S | 188 8.3 20.2 SSE | 165
9/4/26 - 1645 52.3 42 29.7 42.4 SW | 225 5.6 17.1 SW | 234
9/4/26 - 1640 52.7 41 29.8 42.6 SSW | 198 6.1 13.4 S | 183
9/4/26 - 1635 53.0 40 29.6 42.7 SW | 214 5.9 15.0 SSE | 159
9/4/26 - 1630 53.1 41 30.3 43.0 SSW | 208 5.1 16.1 SW | 215
9/4/26 - 1625 53.5 40 30.0 43.0 SSW | 211 5.0 13.6 S | 170
9/4/26 - 1620 52.4 40 28.8 42.2 SSW | 192 7.2 24.7 SSW | 200
9/4/26 - 1615 53.0 40 29.6 42.7 S | 184 8.8 23.1 SSW | 192
9/4/26 - 1610 53.6 41 30.8 43.4 SSW | 208 6.3 16.4 SSE | 158
9/4/26 - 1605 53.1 43 31.2 43.3 SSW | 209 6.7 24.2 SSW | 194
9/4/26 - 1600 52.7 43 30.6 42.9 SSW | 194 7.1 20.1 S | 181
9/4/26 - 1555 53.1 42 30.9 43.2 SW | 224 5.4 14.9 WSW | 255
9/4/26 - 1550 53.4 42 30.9 43.3 WSW | 240 4.8 16.5 SSW | 211
9/4/26 - 1545 54.6 43 32.4 44.4 SSW | 212 4.6 19.7 S | 175
9/4/26 - 1540 54.1 43 31.9 44.0 SW | 216 3.9 13.1 S | 187
9/4/26 - 1535 53.4 43 31.3 43.4 SSW | 211 4.5 13.0 S | 171
9/4/26 - 1530 52.8 42 30.3 42.8 SSW | 194 8.7 26.7 SSE | 152
9/4/26 - 1525 53.1 40 29.7 42.8 SW | 224 8.0 16.5 SW | 234
9/4/26 - 1520 53.7 41 30.3 43.3 SSW | 197 6.4 18.0 S | 181
9/4/26 - 1515 53.7 41 30.4 43.3 SSW | 202 5.1 18.2 S | 179
9/4/26 - 1510 54.4 41 31.2 43.9 SSW | 205 7.7 29.4 S | 189
9/4/26 - 1505 53.8 41 31.0 43.6 S | 189 7.6 19.2 SSW | 209
9/4/26 - 1500 53.8 42 31.4 43.7 SSW | 192 11.7 23.8 SSW | 206
9/4/26 - 1455 53.7 44 32.1 43.9 SSW | 198 9.7 24.7 S | 171
9/4/26 - 1450 55.1 43 33.2 44.9 S | 176 7.5 23.6 S | 186
9/4/26 - 1445 54.5 44 33.0 44.6 SW | 215 6.1 25.1 SSE | 156
9/4/26 - 1440 53.4 43 31.5 43.5 S | 185 9.8 28.9 S | 187
9/4/26 - 1435 54.3 43 32.4 44.3 SSE | 166 7.5 21.3 SE | 142
9/4/26 - 1430 54.5 42 32.2 44.3 S | 189 7.6 21.9 SSW | 192
9/4/26 - 1425 55.4 44 33.8 45.3 S | 184 6.2 14.7 W | 276
9/4/26 - 1420 55.1 44 33.7 45.1 S | 181 6.3 20.1 S | 170
9/4/26 - 1415 54.5 44 33.2 44.7 SSW | 202 7.0 30.7 SSW | 194
9/4/26 - 1410 55.1 44 33.8 45.2 S | 187 8.7 17.9 S | 171
9/4/26 - 1405 54.9 44 33.4 44.9 S | 187 6.9 19.6 S | 181
9/4/26 - 1400 55.4 44 34.0 45.4 S | 191 8.9 23.4 S | 189
9/4/26 - 1355 54.4 44 33.1 44.6 SSW | 197 7.3 21.7 S | 187
9/4/26 - 1350 54.2 45 33.1 44.5 S | 191 9.2 22.0 S | 185
9/4/26 - 1345 55.0 44 33.8 45.1 SSW | 205 5.1 16.8 SSW | 195
9/4/26 - 1340 53.5 44 32.4 43.9 SSW | 197 9.2 23.3 SW | 224
9/4/26 - 1335 55.1 44 33.6 45.1 S | 188 7.7 24.5 S | 173
9/4/26 - 1330 54.6 44 33.3 44.7 S | 170 8.3 23.4 SSW | 196
9/4/26 - 1325 54.2 44 32.9 44.4 SSW | 198 7.7 20.5 SSE | 152
9/4/26 - 1320 54.3 44 33.0 44.5 SSW | 206 5.4 17.6 SSE | 149
9/4/26 - 1315 53.7 44 32.1 43.9 SSW | 202 10.0 25.2 S | 188
9/4/26 - 1310 54.2 43 32.0 44.1 SSW | 203 7.0 21.3 S | 176
9/4/26 - 1305 54.3 43 32.3 44.2 S | 188 8.0 18.7 S | 190
9/4/26 - 1300 54.1 42 31.8 43.9 SSW | 208 8.6 20.8 S | 176
9/4/26 - 1255 52.9 42 30.7 43.0 SSW | 200 10.1 24.7 S | 179
9/4/26 - 1250 53.7 43 31.9 43.8 SSW | 193 7.7 30.6 S | 182
9/4/26 - 1245 54.5 44 33.1 44.6 SSW | 200 5.3 17.5 S | 187
9/4/26 - 1240 54.9 43 32.7 44.6 SSW | 193 5.1 23.0 SSE | 150
9/4/26 - 1235 54.4 43 32.3 44.3 S | 186 4.1 12.0 S | 171
9/4/26 - 1230 52.7 43 31.1 43.0 SSW | 207 8.9 21.0 SSW | 207
9/4/26 - 1225 53.1 44 31.8 43.5 SSW | 201 10.9 33.0 SSW | 197
9/4/26 - 1220 53.8 45 32.8 44.2 SSW | 205 6.3 18.3 SW | 217
9/4/26 - 1215 53.8 44 32.5 44.1 S | 189 9.5 21.8 S | 188
9/4/26 - 1210 52.7 44 31.2 43.1 S | 181 8.9 27.5 S | 169
9/4/26 - 1205 53.9 43 31.7 43.9 S | 190 13.3 32.5 S | 184
9/4/26 - 1200 53.9 42 31.7 43.8 SW | 214 5.7 16.6 SSW | 197
9/4/26 - 1155 52.9 43 30.8 43.1 SSW | 194 10.1 28.1 S | 183
9/4/26 - 1150 54.2 43 32.1 44.1 SSW | 202 6.3 16.0 SSE | 165
9/4/26 - 1145 53.6 43 31.8 43.7 SSW | 196 9.3 18.9 S | 176
9/4/26 - 1140 54.1 43 32.1 44.0 S | 177 9.7 22.9 S | 182
9/4/26 - 1135 53.6 44 32.1 43.8 SSW | 211 7.3 17.9 SSE | 164
9/4/26 - 1130 53.6 44 32.3 43.9 SSW | 203 9.1 21.7 SSW | 200
9/4/26 - 1125 54.3 43 32.6 44.3 SW | 214 7.7 20.7 WSW | 243
9/4/26 - 1120 53.1 44 31.8 43.5 SSW | 212 11.4 23.8 SSW | 205
9/4/26 - 1115 54.0 45 33.1 44.4 SSW | 206 6.5 19.3 S | 172
9/4/26 - 1110 53.4 46 32.8 44.0 SSW | 204 7.3 19.2 WSW | 246
9/4/26 - 1105 53.6 44 32.3 43.9 SW | 222 7.0 21.3 W | 267
9/4/26 - 1100 52.4 45 31.6 43.1 SSW | 210 8.4 19.3 W | 260
9/4/26 - 1055 52.6 46 32.3 43.5 SSW | 212 8.8 21.3 SW | 228
9/4/26 - 1050 52.4 47 32.7 43.5 SSW | 198 6.3 17.3 SSW | 206
9/4/26 - 1045 52.1 47 32.3 43.2 SSW | 193 9.6 27.3 SSW | 197
9/4/26 - 1040 51.8 47 32.4 43.1 WSW | 239 6.4 17.7 W | 268
9/4/26 - 1035 51.5 47 32.0 42.8 SSW | 208 9.8 18.7 SW | 226
9/4/26 - 1030 51.6 47 32.1 42.9 SW | 219 8.9 19.0 S | 188
9/4/26 - 1025 51.8 47 32.3 43.0 SW | 216 7.5 21.5 SW | 231
9/4/26 - 1020 52.3 47 32.8 43.5 SSW | 209 6.9 22.2 SW | 215
9/4/26 - 1015 51.4 47 31.9 42.7 SW | 215 9.3 18.2 SSW | 196
9/4/26 - 1010 51.6 47 32.0 42.9 SW | 235 9.9 23.1 SW | 217
9/4/26 - 1005 51.8 47 32.3 43.1 SW | 222 9.0 26.1 WSW | 248
9/4/26 - 1000 51.5 47 32.0 42.8 SW | 218 9.6 17.4 S | 188
9/4/26 - 0955 51.4 46 31.6 42.6 SSW | 193 7.5 21.5 S | 188
9/4/26 - 0950 51.4 46 31.3 42.5 SSW | 212 6.9 18.1 SSW | 211
9/4/26 - 0945 50.4 46 30.5 41.8 WSW | 241 10.2 20.7 WSW | 258
9/4/26 - 0940 50.2 46 30.0 41.4 SSW | 212 9.0 17.1 SW | 231
9/4/26 - 0935 49.8 46 29.7 41.2 WSW | 241 7.9 19.2 WSW | 241
9/4/26 - 0930 49.1 45 28.8 40.5 SW | 236 10.2 28.4 WNW | 286
9/4/26 - 0925 49.5 45 29.1 40.8 SW | 222 10.4 20.4 S | 177
9/4/26 - 0920 48.9 45 28.8 40.4 SW | 220 8.5 20.2 SSW | 213
9/4/26 - 0915 48.9 46 28.9 40.5 SSW | 210 6.4 14.1 S | 182
9/4/26 - 0910 47.7 46 27.8 39.5 SSW | 212 8.5 16.5 S | 188
9/4/26 - 0905 47.4 46 27.7 39.3 SW | 214 8.8 21.2 S | 174
9/4/26 - 0900 47.4 46 27.4 39.2 SW | 215 9.7 21.2 WSW | 250
9/4/26 - 0855 47.0 46 27.2 38.9 SSW | 195 8.3 16.8 SSW | 192
9/4/26 - 0850 46.7 45 26.7 38.6 SSW | 203 11.3 19.7 SSW | 197
9/4/26 - 0845 46.8 46 27.2 38.8 SSW | 205 8.5 18.6 S | 189
9/4/26 - 0840 46.8 46 27.1 38.8 S | 186 9.2 22.4 SSW | 198
9/4/26 - 0835 46.6 46 26.8 38.6 SSW | 199 7.5 17.0 SSW | 200
9/4/26 - 0830 46.1 46 26.4 38.2 SSW | 209 10.0 20.8 SSW | 199
9/4/26 - 0825 46.1 46 26.6 38.2 SSW | 207 7.0 21.2 SSW | 196
9/4/26 - 0820 45.6 46 26.2 37.9 SSW | 204 8.6 34.1 S | 176
9/4/26 - 0815 44.9 46 25.6 37.3 SSW | 192 12.0 22.9 S | 188
9/4/26 - 0810 45.4 46 25.9 37.6 SSW | 203 8.8 18.3 S | 186
9/4/26 - 0805 44.9 46 25.5 37.3 SSW | 212 8.3 24.6 SSW | 194
9/4/26 - 0800 45.1 46 25.6 37.4 SSW | 201 10.2 25.9 S | 186
9/4/26 - 0755 44.8 46 25.1 37.1 SSW | 206 7.1 21.8 SSW | 192
9/4/26 - 0750 44.2 45 24.2 36.5 SSW | 192 11.7 29.7 S | 187
9/4/26 - 0745 44.0 46 24.3 36.4 SW | 217 11.4 29.7 SSW | 200
9/4/26 - 0740 43.7 46 24.3 36.3 SSW | 196 12.2 27.9 S | 186
9/4/26 - 0735 43.9 47 24.9 36.5 SSW | 211 10.8 24.4 S | 186
9/4/26 - 0730 43.8 46 24.7 36.4 SSW | 209 9.7 21.4 SSW | 204
9/4/26 - 0725 43.4 46 24.1 36.0 SSW | 195 11.3 27.4 S | 173
9/4/26 - 0720 43.7 46 24.2 36.2 SSW | 198 8.4 20.3 S | 188
9/4/26 - 0715 43.7 46 24.1 36.2 SSW | 200 9.9 27.0 S | 185
9/4/26 - 0710 43.6 45 23.7 36.0 SSW | 199 8.7 21.6 S | 182
9/4/26 - 0705 44.0 44 23.6 36.2 SW | 214 9.2 21.5 W | 273
9/4/26 - 0700 43.7 44 23.4 36.0 SSW | 211 8.2 25.5 SSW | 193
9/4/26 - 0655 43.0 44 22.9 35.4 SSW | 202 8.3 19.0 WSW | 256
9/4/26 - 0650 43.1 45 23.1 35.6 SSW | 206 8.3 20.5 S | 191
9/4/26 - 0645 42.4 44 22.1 34.9 SSW | 194 8.2 17.1 SSW | 196
9/4/26 - 0640 42.1 44 21.9 34.6 SSW | 198 10.0 21.7 SSW | 210
9/4/26 - 0635 42.1 44 21.8 34.6 S | 191 11.4 23.3 S | 185
9/4/26 - 0630 42.3 44 22.1 34.8 SSW | 198 10.6 29.9 S | 184
9/4/26 - 0625 42.6 44 22.3 35.0 SSW | 203 11.6 25.9 SSW | 194
9/4/26 - 0620 42.4 44 22.1 34.9 SSW | 196 10.3 21.8 SSW | 205
9/4/26 - 0615 42.7 44 22.3 35.1 SSW | 195 10.7 25.3 SSW | 196
9/4/26 - 0610 42.6 44 22.2 35.0 SSW | 193 8.9 18.9 S | 186
9/4/26 - 0605 42.3 44 22.0 34.8 SSW | 196 12.5 26.2 SSW | 194
9/4/26 - 0600 42.7 44 22.3 35.1 SSW | 200 9.6 21.8 S | 182
9/4/26 - 0555 43.0 44 22.6 35.4 SSW | 205 12.2 29.8 S | 171
9/4/26 - 0550 42.7 45 22.6 35.2 S | 189 9.8 21.2 S | 188
9/4/26 - 0545 42.8 45 23.1 35.4 SSW | 203 11.0 22.8 SSW | 204
9/4/26 - 0540 43.0 45 23.3 35.6 SSW | 208 10.0 23.1 SSW | 197
9/4/26 - 0535 42.8 45 23.0 35.4 SSW | 201 8.3 22.2 S | 187
9/4/26 - 0530 42.9 45 22.9 35.4 SSW | 195 7.9 17.6 SSE | 158
9/4/26 - 0525 42.9 44 22.7 35.4 SSW | 205 8.3 19.8 S | 190
9/4/26 - 0520 43.0 44 22.8 35.4 SSW | 194 7.3 21.5 S | 177
9/4/26 - 0515 43.0 45 23.2 35.5 SSW | 204 7.0 20.0 SSE | 168
9/4/26 - 0510 43.0 45 23.1 35.5 SSW | 210 8.4 23.4 SSW | 210
9/4/26 - 0505 43.1 45 23.1 35.6 SSW | 196 9.8 23.7 S | 174
9/4/26 - 0500 43.3 45 23.1 35.6 SSW | 194 8.3 17.8 SSW | 193
9/4/26 - 0455 43.3 44 22.9 35.6 SW | 218 8.2 22.5 SSW | 208
9/4/26 - 0450 43.4 43 22.6 35.6 SSW | 199 8.3 26.0 SSW | 203
9/4/26 - 0445 43.2 43 22.4 35.4 SSW | 203 7.3 16.6 SW | 214
9/4/26 - 0440 43.3 43 22.4 35.4 SSW | 199 6.5 16.1 SW | 224
9/4/26 - 0435 43.4 43 22.6 35.6 SSW | 194 9.0 23.3 S | 187
9/4/26 - 0430 43.3 43 22.5 35.5 SSW | 204 8.1 18.4 S | 172
9/4/26 - 0425 43.7 44 23.2 35.9 SW | 220 9.5 21.2 W | 273
9/4/26 - 0420 43.6 44 23.3 35.9 SSW | 198 11.2 23.9 SSW | 194
9/4/26 - 0415 43.3 44 23.1 35.6 SSW | 197 8.3 24.7 S | 190
9/4/26 - 0410 43.2 44 22.8 35.5 SSW | 209 6.8 18.8 S | 175
9/4/26 - 0405 43.4 44 23.0 35.7 SW | 214 7.7 20.2 SSW | 212
9/4/26 - 0400 43.4 44 22.9 35.7 SSW | 204 10.5 26.8 SSW | 197
9/4/26 - 0355 43.4 44 22.7 35.6 SSW | 200 6.2 20.6 SSW | 196
9/4/26 - 0350 43.3 44 22.6 35.5 SSW | 202 7.1 15.7 SSW | 192
9/4/26 - 0345 43.3 44 22.6 35.5 S | 189 8.4 22.2 S | 184
9/4/26 - 0340 43.4 44 22.8 35.6 SW | 229 7.9 17.5 WSW | 249
9/4/26 - 0335 43.7 43 23.0 35.9 SSW | 212 10.6 22.3 SSW | 210
9/4/26 - 0330 43.7 43 22.8 35.8 SSW | 199 5.8 20.1 S | 186
9/4/26 - 0325 43.4 43 22.2 35.5 SSW | 199 7.7 16.5 SSW | 195
9/4/26 - 0320 43.5 42 21.8 35.4 SSW | 200 6.9 16.9 SSW | 196
9/4/26 - 0315 43.3 42 21.7 35.3 SSW | 211 8.1 20.3 SSW | 196
9/4/26 - 0310 43.6 42 22.0 35.6 SSW | 207 7.8 27.1 S | 182
9/4/26 - 0305 43.5 42 22.1 35.5 SW | 215 7.0 21.5 WSW | 257
9/4/26 - 0300 43.5 42 22.1 35.5 SSW | 208 10.0 27.4 S | 178
9/4/26 - 0255 43.6 43 22.4 35.6 SSW | 203 8.1 19.0 SSE | 155
9/4/26 - 0250 43.6 42 22.3 35.6 SSW | 208 10.3 20.4 S | 175
9/4/26 - 0245 43.8 43 22.9 35.9 SSW | 192 8.2 21.0 S | 182
Max 55.4 47 34.0 45.4 - 13.3 34.1 -
Avg 48.1 43 26.6 39.3 - 7.3 18.9 -
Min 42.1 39 21.7 34.6 - 3.4 8.7 -